Terminal Aerodrome Forecast
Issued by NWS Cleveland, OH

Home | Current Version | Previous Version | Graphics & Text | Print | Product List | Glossary On
Versions: 1 2 3 4 5 6 7 8 9 10 11 12 13 14 15 16 17
150
FTUS41 KCLE 191739 AAA
TAFYNG
TAF AMD
KYNG 191739Z 1918/2018 15004KT P6SM SCT040 BKN150
      TEMPO 1922/1924 -SHRA BKN025 OVC040
     FM200000 VRB03KT P6SM FEW040 BKN150
     FM201000 VRB03KT P6SM SCT040 BKN090=

USA.gov is the U.S. government's official web portal to all federal, state and local government web resources and services.